Time;durP1;ratioP1;P1;durP2;ratioP2;P2;SDS_P1;SDS_P2;PMS_P1;PMS_P2;Temp;Humidity;BMP_temperature;BMP_pressure;BME280_temperature;BME280_humidity;BME280_pressure;Samples;Min_cycle;Max_cycle;Signal;HPM_P1;HPM_P2
2023/01/12 00:02:17;;;;;;;25.50;4.72;;;8.60;99.90;;;;;;4997805;28;20042;-59
2023/01/12 00:04:43;;;;;;;17.13;3.75;;;8.50;99.90;;;;;;4998990;28;20497;-60
2023/01/12 00:07:11;;;;;;;23.05;3.88;;;8.50;99.90;;;;;;4996223;28;20038;-60
2023/01/12 00:09:37;;;;;;;16.52;3.60;;;8.60;99.90;;;;;;5005350;28;20040;-61
2023/01/12 00:12:05;;;;;;;13.80;2.85;;;8.50;99.90;;;;;;5002022;28;20041;-60
2023/01/12 00:14:36;;;;;;;19.27;3.28;;;8.40;99.90;;;;;;5017170;28;20509;-60
2023/01/12 00:17:02;;;;;;;20.23;3.45;;;8.30;99.90;;;;;;4992422;28;20116;-59
2023/01/12 00:19:27;;;;;;;24.63;3.85;;;8.30;99.90;;;;;;4983302;28;20117;-60
2023/01/12 00:22:11;;;;;;;20.42;3.90;;;8.40;99.90;;;;;;5007032;28;20469;-58
2023/01/12 00:24:39;;;;;;;24.45;3.88;;;8.40;99.90;;;;;;5008054;28;20096;-60
2023/01/12 00:27:11;;;;;;;30.88;4.10;;;8.40;99.90;;;;;;5001481;28;20263;-60
2023/01/12 00:29:37;;;;;;;15.50;3.42;;;8.40;99.90;;;;;;4996792;28;20109;-60
2023/01/12 00:32:04;;;;;;;19.15;3.22;;;8.40;99.90;;;;;;4986962;28;20167;-60
2023/01/12 00:34:30;;;;;;;18.48;4.03;;;8.40;99.90;;;;;;5002354;28;20045;-60
2023/01/12 00:36:58;;;;;;;22.27;4.68;;;8.40;99.90;;;;;;4995965;28;20619;-61
2023/01/12 00:39:23;;;;;;;23.02;4.30;;;8.40;99.90;;;;;;4992412;28;20057;-60
2023/01/12 00:47:18;;;;;;;18.42;3.70;;;8.40;99.90;;;;;;4998566;28;20049;-61
2023/01/12 00:49:44;;;;;;;25.83;4.45;;;8.40;99.90;;;;;;5001821;28;20108;-60
2023/01/12 00:52:14;;;;;;;27.63;4.55;;;8.40;99.90;;;;;;5003580;28;20480;-60
2023/01/12 00:54:40;;;;;;;27.98;4.50;;;8.40;99.90;;;;;;5018971;28;20053;-60
2023/01/12 00:57:07;;;;;;;23.52;3.45;;;8.40;99.90;;;;;;4984761;28;20037;-60
2023/01/12 00:59:32;;;;;;;23.88;4.32;;;8.50;99.90;;;;;;5002300;28;20041;-60
2023/01/12 01:01:59;;;;;;;25.80;4.00;;;8.50;99.90;;;;;;4994980;28;20050;-60
2023/01/12 01:04:24;;;;;;;24.48;5.47;;;8.40;99.90;;;;;;4998789;28;20034;-60
2023/01/12 01:06:50;;;;;;;20.85;3.35;;;8.50;99.90;;;;;;5004887;28;20034;-58
2023/01/12 01:09:16;;;;;;;18.33;3.50;;;8.50;99.90;;;;;;4998179;28;20077;-61
2023/01/12 01:11:42;;;;;;;25.08;4.75;;;8.50;99.90;;;;;;5002690;28;20046;-60
2023/01/12 01:14:07;;;;;;;23.27;4.45;;;8.50;99.90;;;;;;5015899;28;20049;-61
2023/01/12 01:16:34;;;;;;;23.08;3.63;;;8.50;99.90;;;;;;5000053;28;20100;-61
2023/01/12 01:19:01;;;;;;;21.70;4.35;;;8.50;99.90;;;;;;4998594;28;20038;-60
2023/01/12 01:21:27;;;;;;;20.27;3.80;;;8.50;99.90;;;;;;4994523;28;20367;-60
2023/01/12 01:23:53;;;;;;;19.50;3.67;;;8.50;99.90;;;;;;4985492;28;20050;-59
2023/01/12 01:26:21;;;;;;;17.20;3.67;;;8.50;99.90;;;;;;5004608;28;20099;-60
2023/01/12 01:28:48;;;;;;;21.80;4.22;;;8.50;99.90;;;;;;5001260;28;20073;-60
2023/01/12 01:31:16;;;;;;;28.17;4.80;;;8.50;99.90;;;;;;4997557;28;20050;-59
2023/01/12 01:33:42;;;;;;;22.65;3.47;;;8.50;99.90;;;;;;4999937;28;20505;-60
2023/01/12 01:36:09;;;;;;;26.20;4.43;;;8.50;99.90;;;;;;4981720;28;20046;-61
2023/01/12 01:38:36;;;;;;;22.35;4.75;;;8.50;99.90;;;;;;4996889;28;20069;-61
2023/01/12 01:41:02;;;;;;;22.38;3.85;;;8.50;99.90;;;;;;5012491;28;20478;-60
2023/01/12 01:43:46;;;;;;;28.30;4.30;;;8.60;99.90;;;;;;5001848;28;20054;-59
2023/01/12 01:46:15;;;;;;;21.88;4.35;;;8.60;99.90;;;;;;4985313;28;20049;-60
2023/01/12 01:48:42;;;;;;;35.50;5.15;;;8.60;99.90;;;;;;4997624;28;20173;-60
2023/01/12 01:51:12;;;;;;;20.80;5.03;;;8.60;99.90;;;;;;4981289;28;20139;-60
2023/01/12 01:53:41;;;;;;;20.25;3.78;;;8.60;99.90;;;;;;5016124;28;20215;-60
2023/01/12 01:56:16;;;;;;;24.85;4.00;;;8.60;99.90;;;;;;5000064;28;20053;-60
2023/01/12 01:58:58;;;;;;;23.13;4.38;;;8.70;99.90;;;;;;5002812;28;20587;-60
2023/01/12 02:01:24;;;;;;;32.90;5.30;;;8.70;99.90;;;;;;4999317;28;20042;-60
2023/01/12 02:03:52;;;;;;;27.15;4.90;;;8.60;99.90;;;;;;4998542;28;20073;-59
2023/01/12 02:06:19;;;;;;;27.52;4.85;;;8.70;99.90;;;;;;4983159;28;20041;-59
2023/01/12 02:09:29;;;;;;;23.65;3.95;;;8.70;99.90;;;;;;4967181;28;20042;-60
2023/01/12 02:17:48;;;;;;;22.13;4.18;;;8.70;99.90;;;;;;4998551;28;20085;-60
2023/01/12 02:20:35;;;;;;;28.80;6.85;;;8.70;99.90;;;;;;5001403;28;20052;-60
2023/01/12 02:23:19;;;;;;;28.20;4.93;;;8.70;99.90;;;;;;5001828;28;20485;-61
2023/01/12 02:26:27;;;;;;;29.38;4.55;;;8.70;99.90;;;;;;4999863;28;20778;-60
2023/01/12 02:29:14;;;;;;;19.15;4.65;;;8.80;99.90;;;;;;5011986;28;20042;-59
2023/01/12 02:32:05;;;;;;;24.05;4.68;;;8.80;99.90;;;;;;5014251;28;20104;-60
2023/01/12 02:34:53;;;;;;;25.90;4.93;;;8.80;99.90;;;;;;4999386;28;20137;-61
2023/01/12 02:37:47;;;;;;;25.25;4.75;;;8.80;99.90;;;;;;5002487;28;20500;-60
2023/01/12 02:40:38;;;;;;;32.13;6.37;;;8.80;99.90;;;;;;4996345;28;20129;-59
2023/01/12 02:43:20;;;;;;;28.75;4.45;;;8.80;99.90;;;;;;4997774;28;20038;-60
2023/01/12 02:46:10;;;;;;;30.77;5.95;;;8.80;99.90;;;;;;5002604;28;20041;-59
2023/01/12 02:49:23;;;;;;;31.13;5.85;;;8.80;99.90;;;;;;4982563;28;20274;-60
2023/01/12 02:51:54;;;;;;;35.05;5.85;;;8.80;99.90;;;;;;4988710;28;20074;-60
2023/01/12 02:54:22;;;;;;;26.67;5.13;;;8.80;99.90;;;;;;4997469;28;20060;-60
2023/01/12 02:56:52;;;;;;;38.65;6.15;;;8.80;99.90;;;;;;4996415;28;20505;-60
2023/01/12 02:59:28;;;;;;;28.83;5.93;;;8.80;99.90;;;;;;5009713;28;20034;-60
2023/01/12 03:01:59;;;;;;;37.97;6.25;;;8.80;99.90;;;;;;5000123;28;20103;-60
2023/01/12 03:04:27;;;;;;;31.52;5.97;;;8.80;99.90;;;;;;5004758;28;20065;-60
2023/01/12 03:06:55;;;;;;;30.63;5.97;;;8.80;99.90;;;;;;5019862;28;20244;-59
2023/01/12 03:09:26;;;;;;;30.50;5.07;;;8.80;99.90;;;;;;5007161;28;20045;-58
2023/01/12 03:11:57;;;;;;;35.65;6.45;;;8.80;99.90;;;;;;5008489;28;20038;-60
2023/01/12 03:14:23;;;;;;;34.55;6.45;;;8.90;99.90;;;;;;5002521;28;20127;-59
2023/01/12 03:16:50;;;;;;;32.97;5.55;;;8.90;99.90;;;;;;5006519;28;20085;-59
2023/01/12 03:19:21;;;;;;;26.23;4.90;;;8.90;99.90;;;;;;5002604;28;20040;-60
2023/01/12 03:21:56;;;;;;;35.10;6.07;;;8.90;99.90;;;;;;5003130;28;20113;-58
2023/01/12 03:24:27;;;;;;;34.08;6.20;;;8.90;99.90;;;;;;5007607;28;20045;-60
2023/01/12 03:27:00;;;;;;;29.58;7.03;;;8.90;99.90;;;;;;5023433;28;20069;-58
2023/01/12 03:29:34;;;;;;;40.40;6.85;;;8.90;99.90;;;;;;5008842;28;20131;-61
2023/01/12 03:32:01;;;;;;;30.50;6.25;;;8.90;99.90;;;;;;5004835;28;20212;-61
2023/01/12 03:34:27;;;;;;;26.88;5.72;;;8.90;99.90;;;;;;4990781;28;20523;-61
2023/01/12 03:37:20;;;;;;;29.85;5.78;;;8.90;99.90;;;;;;4999103;28;20364;-61
2023/01/12 03:39:46;;;;;;;34.25;5.88;;;9.00;99.90;;;;;;5018124;28;20121;-60
2023/01/12 03:42:23;;;;;;;37.97;5.82;;;9.00;99.90;;;;;;5001228;28;20042;-61
2023/01/12 03:44:57;;;;;;;24.40;5.70;;;9.00;99.90;;;;;;5004479;28;20104;-61
2023/01/12 03:47:29;;;;;;;31.67;7.68;;;9.00;99.90;;;;;;5001121;28;20508;-59
2023/01/12 03:50:00;;;;;;;33.80;5.88;;;9.00;99.90;;;;;;5015350;28;20065;-61
2023/01/12 03:52:29;;;;;;;27.17;5.60;;;9.00;99.90;;;;;;5000964;28;20030;-61
2023/01/12 03:54:57;;;;;;;30.90;7.38;;;9.00;99.90;;;;;;4999669;28;20426;-61
2023/01/12 03:57:23;;;;;;;26.90;5.53;;;9.00;99.90;;;;;;5016318;28;20040;-60
2023/01/12 03:59:51;;;;;;;32.13;5.60;;;9.00;99.90;;;;;;5011161;28;20076;-61
2023/01/12 04:02:17;;;;;;;31.83;6.50;;;9.00;99.90;;;;;;4979145;28;20050;-61
2023/01/12 04:04:42;;;;;;;25.92;5.40;;;9.00;99.90;;;;;;4998903;28;20041;-60
2023/01/12 04:07:08;;;;;;;35.58;5.55;;;9.00;99.90;;;;;;4976769;28;20034;-61
2023/01/12 04:09:34;;;;;;;29.65;5.55;;;9.00;99.90;;;;;;5019282;28;20045;-60
2023/01/12 04:12:12;;;;;;;34.05;6.70;;;9.00;99.90;;;;;;5025017;28;20050;-60
2023/01/12 04:14:39;;;;;;;23.67;4.03;;;9.00;99.90;;;;;;4984249;28;20045;-59
2023/01/12 04:17:08;;;;;;;22.05;4.63;;;9.00;99.90;;;;;;5023221;28;20041;-61
2023/01/12 04:19:33;;;;;;;25.80;4.45;;;9.00;99.90;;;;;;5001371;28;20050;-61
2023/01/12 04:24:43;;;;;;;;;;;9.20;99.90;;;;;;5006821;28;20795;-60
2023/01/12 04:27:09;;;;;;;18.65;3.47;;;9.00;99.90;;;;;;4988912;28;20279;-58
2023/01/12 04:29:35;;;;;;;23.48;4.82;;;9.00;99.90;;;;;;4999656;28;20477;-60
2023/01/12 04:32:01;;;;;;;21.27;4.43;;;8.90;99.90;;;;;;5001719;28;20412;-59
2023/01/12 04:34:26;;;;;;;25.50;3.70;;;9.00;99.90;;;;;;4999985;28;20046;-60
2023/01/12 04:36:52;;;;;;;17.20;3.70;;;9.00;99.90;;;;;;4990660;28;20092;-60
2023/01/12 04:39:18;;;;;;;20.63;3.53;;;8.90;99.90;;;;;;5010589;28;20117;-60
2023/01/12 04:41:43;;;;;;;16.65;3.83;;;8.90;99.90;;;;;;4986723;28;20046;-60
2023/01/12 04:44:09;;;;;;;20.23;4.50;;;8.90;99.90;;;;;;5000956;28;20060;-60
2023/01/12 04:46:35;;;;;;;20.83;4.25;;;8.90;99.90;;;;;;4996432;28;20103;-60
2023/01/12 04:49:00;;;;;;;14.05;2.85;;;8.90;99.90;;;;;;5002732;28;20133;-60
2023/01/12 04:51:26;;;;;;;12.77;2.33;;;8.90;99.90;;;;;;4982863;28;20084;-61
2023/01/12 04:53:52;;;;;;;15.27;2.80;;;8.80;99.90;;;;;;4998727;28;20515;-61
2023/01/12 04:56:18;;;;;;;16.38;2.90;;;8.90;99.90;;;;;;4997564;28;20050;-60
2023/01/12 04:58:44;;;;;;;13.98;2.78;;;8.80;99.90;;;;;;5012313;28;20042;-61
2023/01/12 05:01:12;;;;;;;18.42;3.72;;;8.90;99.90;;;;;;5005287;28;20038;-61
2023/01/12 05:03:38;;;;;;;21.50;3.90;;;8.90;99.90;;;;;;5018513;28;20064;-60
2023/01/12 05:06:04;;;;;;;16.98;3.55;;;8.90;99.90;;;;;;4974634;28;20128;-61
2023/01/12 05:11:14;;;;;;;;;;;8.90;99.90;;;;;;4999245;28;20046;-60
2023/01/12 05:13:40;;;;;;;8.13;2.15;;;8.90;99.90;;;;;;5015744;28;19918;-60
2023/01/12 05:16:11;;;;;;;12.65;2.13;;;8.90;99.90;;;;;;5003774;28;20042;-60
2023/01/12 05:18:37;;;;;;;11.73;2.10;;;8.90;99.90;;;;;;5007017;28;20348;-60
2023/01/12 05:21:03;;;;;;;9.95;1.90;;;8.90;99.90;;;;;;5013602;28;20039;-61
2023/01/12 05:23:29;;;;;;;7.43;1.80;;;8.90;99.90;;;;;;5020977;28;20060;-60
2023/01/12 05:26:02;;;;;;;7.05;2.00;;;8.90;99.90;;;;;;5004902;28;20481;-60
2023/01/12 05:28:29;;;;;;;5.32;1.65;;;8.90;99.90;;;;;;5003734;28;20608;-61
2023/01/12 05:31:01;;;;;;;6.05;1.65;;;8.90;99.90;;;;;;5003957;28;20132;-60
2023/01/12 05:33:27;;;;;;;5.43;1.80;;;8.90;99.90;;;;;;5019336;28;20042;-59
2023/01/12 05:35:53;;;;;;;5.53;1.70;;;8.80;99.90;;;;;;5004212;28;20404;-58
2023/01/12 05:38:18;;;;;;;5.47;1.95;;;8.90;99.90;;;;;;4995159;28;20057;-59
2023/01/12 05:40:44;;;;;;;5.88;1.77;;;8.90;99.90;;;;;;5000668;28;20509;-60
2023/01/12 05:46:04;;;;;;;4.88;1.63;;;8.90;99.90;;;;;;5001838;28;20034;-60
2023/01/12 05:48:31;;;;;;;3.75;1.50;;;8.90;99.90;;;;;;4998076;28;20133;-60
2023/01/12 05:51:05;;;;;;;3.28;1.58;;;8.90;99.90;;;;;;5002283;28;20054;-60
2023/01/12 05:53:31;;;;;;;;;;;8.90;99.90;;;;;;4997830;28;20038;-59
2023/01/12 05:55:57;;;;;;;3.60;1.45;;;8.90;99.90;;;;;;5000304;28;19924;-61
2023/01/12 05:58:24;;;;;;;5.00;1.40;;;8.90;99.90;;;;;;4993732;28;20451;-60
2023/01/12 06:00:49;;;;;;;4.55;1.33;;;8.90;99.90;;;;;;5003216;28;20108;-60
2023/01/12 06:03:15;;;;;;;4.30;1.05;;;9.00;99.90;;;;;;4993461;28;20058;-60
2023/01/12 06:05:41;;;;;;;4.45;1.05;;;9.00;99.90;;;;;;4999949;28;20401;-61
2023/01/12 06:08:07;;;;;;;2.58;0.90;;;9.00;99.90;;;;;;5000778;28;20037;-60
2023/01/12 06:10:35;;;;;;;1.75;0.77;;;9.00;99.90;;;;;;5015666;28;20054;-61
2023/01/12 06:15:45;;;;;;;;;;;9.10;99.90;;;;;;4990151;28;20045;-61
2023/01/12 06:18:11;;;;;;;2.97;1.10;;;9.10;99.90;;;;;;4997697;28;20178;-60
2023/01/12 06:20:36;;;;;;;3.65;1.33;;;9.10;99.90;;;;;;4998376;28;20034;-61
2023/01/12 06:23:06;;;;;;;5.38;2.35;;;9.10;99.90;;;;;;4991271;28;20525;-61
2023/01/12 06:25:32;;;;;;;5.65;1.70;;;9.20;99.90;;;;;;5004410;28;20088;-61
2023/01/12 06:27:57;;;;;;;5.03;1.45;;;9.20;99.90;;;;;;5015322;28;20432;-61
2023/01/12 06:30:24;;;;;;;9.18;1.85;;;9.20;99.90;;;;;;4996118;28;20516;-61
2023/01/12 06:32:53;;;;;;;11.68;3.25;;;9.30;99.90;;;;;;4991667;28;20096;-61
2023/01/12 06:35:18;;;;;;;17.70;2.97;;;9.30;99.90;;;;;;4993699;28;20041;-60
2023/01/12 06:37:44;;;;;;;15.73;4.13;;;9.40;99.90;;;;;;4988575;28;20136;-61
2023/01/12 06:40:10;;;;;;;23.88;5.07;;;9.50;99.90;;;;;;4995413;28;20097;-61
2023/01/12 06:42:40;;;;;;;34.88;5.50;;;9.40;99.90;;;;;;4996103;28;20089;-61
2023/01/12 06:45:07;;;;;;;31.08;5.57;;;9.70;99.90;;;;;;4997682;28;20033;-61
2023/01/12 06:47:32;;;;;;;27.58;4.45;;;9.80;99.90;;;;;;4996586;28;20042;-61
2023/01/12 06:49:58;;;;;;;28.70;5.32;;;9.90;99.90;;;;;;5003096;28;20038;-59
2023/01/12 06:52:26;;;;;;;27.33;4.82;;;10.00;99.90;;;;;;5002716;28;20049;-61
2023/01/12 06:54:52;;;;;;;26.77;5.25;;;10.00;99.90;;;;;;4982895;28;20056;-60
2023/01/12 06:57:18;;;;;;;27.35;6.00;;;10.10;99.90;;;;;;4993323;28;20473;-61
2023/01/12 06:59:44;;;;;;;30.25;5.93;;;10.20;99.90;;;;;;4992530;28;20132;-61
2023/01/12 07:02:14;;;;;;;23.95;4.43;;;10.20;99.90;;;;;;4997530;28;20583;-61
2023/01/12 07:04:41;;;;;;;25.27;4.40;;;10.30;99.90;;;;;;5017128;28;20074;-61
2023/01/12 07:07:08;;;;;;;21.92;4.30;;;10.40;99.90;;;;;;4986035;28;20057;-61
2023/01/12 07:09:34;;;;;;;27.35;4.28;;;10.40;99.90;;;;;;5013564;28;20042;-61
2023/01/12 07:12:00;;;;;;;28.83;5.10;;;10.40;99.90;;;;;;4997336;28;20038;-61
2023/01/12 07:14:26;;;;;;;27.15;5.18;;;10.40;99.90;;;;;;5002927;28;20104;-60
2023/01/12 07:16:51;;;;;;;26.83;5.07;;;10.40;99.90;;;;;;5001913;28;20041;-61
2023/01/12 07:19:17;;;;;;;25.13;5.38;;;10.40;99.90;;;;;;4986288;28;20042;-61
2023/01/12 07:21:43;;;;;;;27.63;5.60;;;10.50;99.90;;;;;;5013041;28;20133;-60
2023/01/12 07:24:10;;;;;;;29.42;4.78;;;10.50;99.90;;;;;;5002671;28;20124;-60
2023/01/12 07:26:36;;;;;;;27.38;5.68;;;10.50;99.90;;;;;;5000122;28;20045;-61
2023/01/12 07:29:02;;;;;;;30.75;5.05;;;10.50;99.90;;;;;;5000501;28;20042;-61
2023/01/12 07:31:28;;;;;;;33.47;5.82;;;10.50;99.90;;;;;;4996243;28;20133;-61
2023/01/12 07:33:53;;;;;;;23.35;4.32;;;10.50;99.90;;;;;;5003296;28;20129;-61
2023/01/12 07:36:20;;;;;;;25.63;5.32;;;10.50;99.90;;;;;;4999762;28;20482;-61
2023/01/12 07:38:46;;;;;;;28.42;5.15;;;10.50;99.90;;;;;;5001228;28;20054;-60
2023/01/12 07:42:22;;;;;;;26.98;4.88;;;10.60;99.90;;;;;;4996848;28;20044;-61
2023/01/12 07:43:58;;;;;;;27.80;4.57;;;10.60;99.90;;;;;;4986856;28;20045;-60
2023/01/12 07:46:24;;;;;;;28.95;4.40;;;10.60;99.90;;;;;;4988586;28;20196;-61
2023/01/12 07:48:50;;;;;;;28.35;4.65;;;10.60;99.90;;;;;;5006574;28;20040;-59
2023/01/12 07:51:16;;;;;;;23.63;4.28;;;10.60;99.90;;;;;;5004720;28;20038;-61
2023/01/12 07:53:42;;;;;;;24.30;4.63;;;10.70;99.90;;;;;;5021794;28;20099;-60
2023/01/12 07:56:08;;;;;;;16.75;4.57;;;10.70;99.90;;;;;;5009661;28;20448;-59
2023/01/12 07:58:36;;;;;;;24.67;4.60;;;10.70;99.90;;;;;;5006593;28;20065;-61
2023/01/12 08:01:02;;;;;;;25.10;4.85;;;10.70;99.90;;;;;;4999576;28;20458;-61
2023/01/12 08:03:27;;;;;;;22.13;4.57;;;10.70;99.90;;;;;;4983641;28;20123;-60
2023/01/12 08:05:54;;;;;;;20.95;5.03;;;10.70;99.90;;;;;;5003157;28;20504;-62
2023/01/12 08:08:20;;;;;;;19.42;3.88;;;10.70;99.90;;;;;;5003247;28;20041;-61
2023/01/12 08:10:48;;;;;;;25.77;4.70;;;10.70;99.90;;;;;;4995236;28;20037;-61
2023/01/12 08:13:21;;;;;;;21.85;4.68;;;10.70;99.90;;;;;;5000110;28;20337;-61
2023/01/12 08:15:49;;;;;;;29.17;4.18;;;10.80;99.90;;;;;;5001810;28;20932;-59
2023/01/12 08:18:24;;;;;;;19.38;4.10;;;10.80;99.90;;;;;;4988406;28;20053;-61
2023/01/12 08:20:52;;;;;;;23.98;5.18;;;10.80;99.90;;;;;;5004751;28;20127;-61
2023/01/12 08:23:31;;;;;;;21.92;4.28;;;10.70;99.90;;;;;;5003831;28;20057;-61
2023/01/12 08:26:03;;;;;;;25.40;5.47;;;10.80;99.90;;;;;;5005050;28;20073;-61
2023/01/12 08:28:44;;;;;;;21.80;4.85;;;10.80;99.90;;;;;;5003588;28;20049;-61
2023/01/12 08:31:13;;;;;;;25.08;3.83;;;10.80;99.90;;;;;;5006709;28;20057;-61
2023/01/12 08:33:39;;;;;;;20.80;3.35;;;10.80;99.90;;;;;;5001966;28;20092;-60
2023/01/12 08:36:11;;;;;;;27.13;4.88;;;10.80;99.90;;;;;;4991487;28;20053;-61
2023/01/12 08:38:38;;;;;;;23.80;4.53;;;10.80;99.90;;;;;;4988351;28;20037;-61
2023/01/12 08:44:00;;;;;;;23.27;4.65;;;10.90;99.90;;;;;;5003132;28;20413;-61
2023/01/12 08:46:34;;;;;;;20.65;3.88;;;10.90;99.90;;;;;;4997072;28;20041;-61
2023/01/12 08:49:00;;;;;;;;;;;10.90;99.90;;;;;;4989542;28;20313;-62
2023/01/12 08:51:26;;;;;;;21.88;4.45;;;10.90;99.90;;;;;;4999130;28;19928;-61
2023/01/12 08:53:52;;;;;;;16.38;3.80;;;10.90;99.90;;;;;;5001615;28;20077;-61
2023/01/12 08:56:18;;;;;;;21.50;4.10;;;10.90;99.90;;;;;;4992044;28;20046;-61
2023/01/12 08:58:43;;;;;;;29.20;4.22;;;10.90;99.90;;;;;;4993533;28;20517;-61
2023/01/12 09:01:15;;;;;;;26.05;4.22;;;10.90;99.90;;;;;;4989990;28;20041;-61
2023/01/12 09:03:43;;;;;;;23.17;4.32;;;10.90;99.90;;;;;;4992483;28;20456;-61
2023/01/12 09:06:17;;;;;;;13.68;3.30;;;10.90;99.90;;;;;;5000555;28;20038;-61
2023/01/12 09:08:43;;;;;;;23.63;5.05;;;11.00;99.90;;;;;;5002527;28;20125;-61
2023/01/12 09:11:11;;;;;;;21.02;4.05;;;11.00;99.90;;;;;;4992027;28;20445;-61
2023/01/12 09:13:37;;;;;;;22.25;5.13;;;10.90;99.90;;;;;;5013937;28;20523;-60
2023/01/12 09:16:08;;;;;;;20.73;4.70;;;11.00;99.90;;;;;;5012369;28;20073;-60
2023/01/12 09:18:35;;;;;;;21.10;6.30;;;11.00;99.90;;;;;;5000051;28;20064;-60
2023/01/12 09:21:12;;;;;;;20.52;4.28;;;11.00;99.90;;;;;;4990155;28;20045;-61
2023/01/12 09:23:38;;;;;;;26.85;4.50;;;11.00;99.90;;;;;;5010218;28;20044;-61
2023/01/12 09:26:13;;;;;;;20.65;4.13;;;11.00;99.90;;;;;;4985915;28;20046;-61
2023/01/12 09:28:39;;;;;;;24.23;3.47;;;11.00;99.90;;;;;;4992450;28;20048;-61
2023/01/12 09:31:08;;;;;;;22.73;4.30;;;11.10;99.90;;;;;;4981694;28;20104;-61
2023/01/12 09:33:34;;;;;;;21.35;4.43;;;11.10;99.90;;;;;;5011034;28;20053;-61
2023/01/12 09:36:07;;;;;;;20.95;3.90;;;11.10;99.90;;;;;;4977253;28;20042;-60
2023/01/12 09:38:38;;;;;;;16.70;3.83;;;11.10;99.90;;;;;;5000575;28;20080;-60
2023/01/12 09:47:14;;;;;;;22.23;3.08;;;11.10;99.90;;;;;;4997475;28;20045;-61
2023/01/12 09:49:47;;;;;;;27.23;4.57;;;11.10;99.90;;;;;;5022956;28;20042;-61
2023/01/12 09:52:24;;;;;;;22.33;3.20;;;11.20;99.90;;;;;;4997929;28;20081;-61
2023/01/12 09:54:51;;;;;;;18.80;3.72;;;11.20;99.90;;;;;;5014619;28;20033;-60
2023/01/12 09:57:29;;;;;;;20.75;3.55;;;11.20;99.90;;;;;;5000145;28;20104;-61
2023/01/12 10:00:05;;;;;;;20.75;3.63;;;11.20;99.90;;;;;;4996987;28;20404;-60
2023/01/12 10:02:36;;;;;;;17.92;3.35;;;11.20;99.90;;;;;;5011003;28;20046;-61
2023/01/12 10:05:12;;;;;;;24.25;3.75;;;11.20;99.90;;;;;;4998823;28;20099;-60
2023/01/12 10:07:38;;;;;;;17.83;3.28;;;11.00;99.90;;;;;;4998913;28;20048;-61
2023/01/12 10:10:04;;;;;;;19.25;3.25;;;11.20;99.90;;;;;;4999193;28;20073;-60
2023/01/12 10:12:40;;;;;;;17.27;4.28;;;11.20;99.90;;;;;;5013161;28;20120;-60
2023/01/12 10:15:18;;;;;;;21.73;3.35;;;11.20;99.90;;;;;;4975315;28;20038;-60
2023/01/12 10:17:53;;;;;;;15.05;3.08;;;11.30;99.90;;;;;;4994432;28;20104;-61
2023/01/12 10:20:38;;;;;;;14.60;2.72;;;11.30;99.90;;;;;;4998576;28;20038;-60
2023/01/12 10:23:07;;;;;;;19.90;3.90;;;11.30;99.90;;;;;;5002048;28;20088;-59
2023/01/12 10:25:47;;;;;;;18.95;2.97;;;11.30;99.90;;;;;;4996529;28;20038;-60
2023/01/12 10:28:13;;;;;;;19.98;3.45;;;11.30;99.90;;;;;;4992685;28;20180;-61
2023/01/12 10:30:39;;;;;;;19.75;4.03;;;11.30;99.90;;;;;;4991258;28;20041;-60
2023/01/12 10:33:21;;;;;;;15.10;3.85;;;11.30;99.90;;;;;;5000327;28;20501;-61
2023/01/12 10:35:54;;;;;;;18.67;4.05;;;11.20;99.90;;;;;;5011138;22;20034;-60
2023/01/12 10:38:38;;;;;;;20.02;3.45;;;11.20;99.90;;;;;;4997293;28;20511;-60
2023/01/12 10:41:12;;;;;;;22.60;3.90;;;11.30;99.90;;;;;;5000310;28;20117;-60
2023/01/12 10:43:40;;;;;;;20.55;3.22;;;11.30;99.90;;;;;;4980861;28;20046;-59
2023/01/12 10:46:17;;;;;;;16.75;3.47;;;11.30;99.90;;;;;;4981489;28;20493;-61
2023/01/12 10:48:45;;;;;;;20.40;4.10;;;11.30;99.90;;;;;;4981933;28;20441;-61
2023/01/12 10:51:33;;;;;;;16.67;3.17;;;11.30;99.90;;;;;;4962313;28;20042;-60
2023/01/12 10:54:16;;;;;;;18.05;3.30;;;11.40;99.90;;;;;;4972442;28;20133;-61
2023/01/12 10:56:54;;;;;;;21.48;4.07;;;11.40;99.90;;;;;;4997747;28;20052;-61
2023/01/12 10:59:24;;;;;;;28.77;5.45;;;11.40;99.90;;;;;;4980547;28;20141;-61
2023/01/12 11:02:02;;;;;;;19.25;3.88;;;11.40;99.90;;;;;;4978323;28;20042;-62
2023/01/12 11:04:28;;;;;;;18.67;3.78;;;11.40;99.90;;;;;;4984587;28;20057;-62
2023/01/12 11:07:02;;;;;;;17.55;3.40;;;11.40;99.90;;;;;;4983006;28;20076;-62
2023/01/12 11:09:30;;;;;;;19.83;4.10;;;11.50;99.90;;;;;;4968137;28;20164;-62
2023/01/12 11:12:01;;;;;;;17.08;3.28;;;11.50;99.90;;;;;;4981036;28;20049;-61
2023/01/12 11:14:38;;;;;;;17.02;4.20;;;11.60;99.90;;;;;;4991317;28;20058;-62
2023/01/12 11:17:51;;;;;;;18.33;3.53;;;11.50;99.90;;;;;;4978259;28;20071;-61
2023/01/12 11:20:34;;;;;;;24.30;3.30;;;11.50;99.90;;;;;;4944165;28;20049;-61
2023/01/12 11:23:09;;;;;;;23.90;4.43;;;11.50;99.90;;;;;;4982485;28;20057;-63
2023/01/12 11:25:40;;;;;;;24.50;4.10;;;11.60;99.90;;;;;;4963746;28;20629;-62
2023/01/12 11:28:18;;;;;;;22.70;3.92;;;11.50;99.90;;;;;;5011098;22;20522;-56
2023/01/12 11:30:59;;;;;;;18.50;3.50;;;11.60;99.90;;;;;;5010013;28;20055;-56
2023/01/12 11:33:38;;;;;;;18.25;3.35;;;11.70;99.90;;;;;;4983239;28;20092;-57
2023/01/12 11:36:25;;;;;;;16.77;2.92;;;11.70;99.90;;;;;;4980834;28;20097;-57
2023/01/12 11:39:02;;;;;;;12.52;2.97;;;11.70;99.90;;;;;;4971700;28;20477;-57
2023/01/12 11:43:47;;;;;;;21.38;2.85;;;11.80;99.90;;;;;;4979559;28;20031;-56
2023/01/12 11:44:55;;;;;;;16.88;3.10;;;11.80;99.90;;;;;;4972956;28;20565;-57
2023/01/12 11:47:25;;;;;;;19.85;2.97;;;11.80;99.90;;;;;;4982013;28;20052;-56
2023/01/12 11:50:05;;;;;;;13.75;2.85;;;11.80;99.90;;;;;;4986768;28;20493;-56
2023/01/12 11:52:31;;;;;;;14.60;2.83;;;11.80;99.90;;;;;;4982243;28;20123;-57
2023/01/12 11:54:57;;;;;;;19.10;4.07;;;11.80;99.90;;;;;;4983666;28;20522;-57
2023/01/12 11:57:54;;;;;;;20.58;3.03;;;11.80;99.90;;;;;;4997702;28;20038;-57
2023/01/12 12:00:45;;;;;;;16.88;3.33;;;11.80;99.90;;;;;;4981046;28;20038;-58
2023/01/12 12:03:36;;;;;;;18.75;3.25;;;11.80;99.90;;;;;;4977839;28;20457;-57
2023/01/12 12:06:18;;;;;;;13.15;2.85;;;11.80;99.90;;;;;;4979955;28;20102;-56
2023/01/12 12:08:59;;;;;;;15.77;3.58;;;11.70;99.90;;;;;;4979921;28;20092;-57
2023/01/12 12:11:50;;;;;;;14.90;3.25;;;11.70;99.90;;;;;;4980042;28;20592;-58
2023/01/12 12:14:34;;;;;;;14.57;3.28;;;11.70;99.90;;;;;;4980855;28;20039;-58
2023/01/12 12:17:29;;;;;;;16.50;3.05;;;11.70;99.90;;;;;;4978710;28;20158;-58
2023/01/12 12:20:21;;;;;;;18.80;3.90;;;11.60;99.90;;;;;;4979129;28;20047;-57
2023/01/12 12:22:59;;;;;;;20.35;3.88;;;11.60;99.90;;;;;;4995010;28;20061;-58
2023/01/12 12:25:56;;;;;;;14.77;3.28;;;11.60;99.90;;;;;;4996354;28;20046;-58
2023/01/12 12:28:37;;;;;;;16.40;3.63;;;11.60;99.90;;;;;;4972339;28;20464;-56
2023/01/12 12:31:31;;;;;;;19.38;3.63;;;11.60;99.90;;;;;;4980003;28;20061;-57
2023/01/12 12:34:10;;;;;;;25.17;4.72;;;11.60;99.90;;;;;;4974866;28;20120;-58
2023/01/12 12:36:54;;;;;;;25.63;3.83;;;11.60;99.90;;;;;;5011648;28;20058;-57
2023/01/12 12:39:34;;;;;;;23.55;3.70;;;11.60;99.90;;;;;;4981784;28;20413;-57
2023/01/12 12:45:34;;;;;;;21.02;4.03;;;11.60;99.90;;;;;;5000278;28;20497;-57
2023/01/12 12:48:26;;;;;;;23.70;3.50;;;11.60;99.90;;;;;;4938387;28;20042;-58
2023/01/12 12:50:55;;;;;;;18.40;3.60;;;11.60;99.90;;;;;;4995486;28;20054;-57
2023/01/12 12:53:28;;;;;;;22.55;4.50;;;11.60;99.90;;;;;;4968938;28;21652;-58
2023/01/12 12:55:59;;;;;;;20.20;4.65;;;11.60;99.90;;;;;;4978945;28;20042;-57
2023/01/12 12:58:28;;;;;;;20.50;3.28;;;11.60;99.90;;;;;;5017477;28;20116;-57
2023/01/12 13:01:14;;;;;;;23.85;4.43;;;11.60;99.90;;;;;;4982225;28;20109;-57
2023/01/12 13:03:40;;;;;;;25.45;4.45;;;11.60;99.90;;;;;;4983234;28;20046;-56
2023/01/12 13:06:33;;;;;;;31.88;4.60;;;11.60;99.90;;;;;;4975467;28;20034;-58
2023/01/12 13:09:24;;;;;;;23.20;3.60;;;11.60;99.90;;;;;;4980665;28;20042;-58
2023/01/12 13:11:59;;;;;;;26.77;4.47;;;11.60;99.90;;;;;;4998753;28;20062;-58
2023/01/12 13:14:30;;;;;;;24.60;4.78;;;11.60;99.90;;;;;;4983285;28;20057;-58
2023/01/12 13:17:18;;;;;;;25.80;4.47;;;11.60;99.90;;;;;;4965417;28;20106;-56
2023/01/12 13:20:03;;;;;;;20.77;4.15;;;11.60;99.90;;;;;;4986190;28;20050;-57
2023/01/12 13:22:38;;;;;;;25.45;4.13;;;11.60;99.90;;;;;;4983656;28;20112;-57
2023/01/12 13:25:18;;;;;;;26.52;4.13;;;11.60;99.90;;;;;;4980007;28;20046;-57
2023/01/12 13:27:59;;;;;;;18.50;4.30;;;11.60;99.90;;;;;;4976196;28;20768;-56
2023/01/12 13:30:28;;;;;;;19.45;3.75;;;11.60;99.90;;;;;;4980331;28;20053;-57
2023/01/12 13:33:15;;;;;;;23.02;4.80;;;11.60;99.90;;;;;;4980763;28;20049;-57
2023/01/12 13:35:43;;;;;;;28.27;4.57;;;11.60;99.90;;;;;;4984751;28;20531;-57
2023/01/12 13:38:35;;;;;;;17.33;4.78;;;11.60;99.90;;;;;;4996469;28;20081;-57
2023/01/12 13:41:12;;;;;;;17.00;4.70;;;11.60;99.90;;;;;;4978445;28;20066;-57
2023/01/12 13:43:46;;;;;;;24.98;4.38;;;11.60;99.90;;;;;;4982944;28;20049;-56